sensor_id;sensor_type;location;lat;lon;timestamp;P1;durP1;ratioP1;P2;durP2;ratioP2
13584;SDS011;6863;48.402;9.994;2022-08-01T00:00:32;2.80;;;2.60;;
13584;SDS011;6863;48.402;9.994;2022-08-01T00:02:57;3.22;;;2.95;;
13584;SDS011;6863;48.402;9.994;2022-08-01T00:05:23;3.72;;;2.80;;
13584;SDS011;6863;48.402;9.994;2022-08-01T00:07:48;5.65;;;3.67;;
13584;SDS011;6863;48.402;9.994;2022-08-01T00:10:15;3.40;;;3.10;;
13584;SDS011;6863;48.402;9.994;2022-08-01T00:12:42;3.70;;;3.20;;
13584;SDS011;6863;48.402;9.994;2022-08-01T00:15:09;8.20;;;3.72;;
13584;SDS011;6863;48.402;9.994;2022-08-01T00:17:37;3.67;;;3.17;;
13584;SDS011;6863;48.402;9.994;2022-08-01T00:20:03;4.18;;;3.35;;
13584;SDS011;6863;48.402;9.994;2022-08-01T00:22:31;3.35;;;3.15;;
13584;SDS011;6863;48.402;9.994;2022-08-01T00:24:57;4.05;;;3.28;;
13584;SDS011;6863;48.402;9.994;2022-08-01T00:27:23;4.05;;;2.72;;
13584;SDS011;6863;48.402;9.994;2022-08-01T00:29:48;2.80;;;2.60;;
13584;SDS011;6863;48.402;9.994;2022-08-01T00:32:14;4.82;;;3.30;;
13584;SDS011;6863;48.402;9.994;2022-08-01T00:34:39;3.00;;;2.80;;
13584;SDS011;6863;48.402;9.994;2022-08-01T00:37:05;2.85;;;2.65;;
13584;SDS011;6863;48.402;9.994;2022-08-01T00:39:31;2.50;;;2.30;;
13584;SDS011;6863;48.402;9.994;2022-08-01T00:41:58;2.80;;;2.60;;
13584;SDS011;6863;48.402;9.994;2022-08-01T00:44:24;2.78;;;2.30;;
13584;SDS011;6863;48.402;9.994;2022-08-01T00:46:50;3.38;;;2.92;;
13584;SDS011;6863;48.402;9.994;2022-08-01T00:49:15;2.88;;;2.67;;
13584;SDS011;6863;48.402;9.994;2022-08-01T00:51:41;2.95;;;2.30;;
13584;SDS011;6863;48.402;9.994;2022-08-01T00:54:07;2.80;;;2.60;;
13584;SDS011;6863;48.402;9.994;2022-08-01T00:56:33;3.00;;;2.63;;
13584;SDS011;6863;48.402;9.994;2022-08-01T00:58:58;2.80;;;2.60;;
13584;SDS011;6863;48.402;9.994;2022-08-01T01:01:24;2.83;;;2.63;;
13584;SDS011;6863;48.402;9.994;2022-08-01T01:03:50;3.42;;;2.67;;
13584;SDS011;6863;48.402;9.994;2022-08-01T01:06:25;2.38;;;2.17;;
13584;SDS011;6863;48.402;9.994;2022-08-01T01:11:57;2.50;;;2.30;;
13584;SDS011;6863;48.402;9.994;2022-08-01T01:17:11;2.60;;;2.40;;
13584;SDS011;6863;48.402;9.994;2022-08-01T01:19:43;2.80;;;2.60;;
13584;SDS011;6863;48.402;9.994;2022-08-01T01:24:58;2.78;;;2.58;;
13584;SDS011;6863;48.402;9.994;2022-08-01T01:30:18;2.72;;;2.53;;
13584;SDS011;6863;48.402;9.994;2022-08-01T01:32:46;2.58;;;2.47;;
13584;SDS011;6863;48.402;9.994;2022-08-01T01:35:20;2.97;;;2.78;;
13584;SDS011;6863;48.402;9.994;2022-08-01T01:37:49;3.35;;;3.05;;
13584;SDS011;6863;48.402;9.994;2022-08-01T01:40:19;2.95;;;2.75;;
13584;SDS011;6863;48.402;9.994;2022-08-01T01:42:46;2.80;;;2.50;;
13584;SDS011;6863;48.402;9.994;2022-08-01T01:45:13;2.50;;;2.30;;
13584;SDS011;6863;48.402;9.994;2022-08-01T01:47:41;2.45;;;2.25;;
13584;SDS011;6863;48.402;9.994;2022-08-01T01:50:09;3.15;;;2.60;;
13584;SDS011;6863;48.402;9.994;2022-08-01T01:52:37;2.42;;;2.28;;
13584;SDS011;6863;48.402;9.994;2022-08-01T01:55:05;3.10;;;2.80;;
13584;SDS011;6863;48.402;9.994;2022-08-01T01:57:32;2.80;;;2.60;;
13584;SDS011;6863;48.402;9.994;2022-08-01T02:00:03;3.10;;;2.90;;
13584;SDS011;6863;48.402;9.994;2022-08-01T02:02:31;3.17;;;2.97;;
13584;SDS011;6863;48.402;9.994;2022-08-01T02:04:59;2.90;;;2.70;;
13584;SDS011;6863;48.402;9.994;2022-08-01T02:07:25;3.33;;;3.03;;
13584;SDS011;6863;48.402;9.994;2022-08-01T02:09:52;2.92;;;2.65;;
13584;SDS011;6863;48.402;9.994;2022-08-01T02:12:19;3.33;;;3.03;;
13584;SDS011;6863;48.402;9.994;2022-08-01T02:14:49;3.05;;;2.78;;
13584;SDS011;6863;48.402;9.994;2022-08-01T02:17:18;4.05;;;2.97;;
13584;SDS011;6863;48.402;9.994;2022-08-01T02:19:45;3.70;;;3.05;;
13584;SDS011;6863;48.402;9.994;2022-08-01T02:22:14;3.58;;;3.10;;
13584;SDS011;6863;48.402;9.994;2022-08-01T02:24:55;3.42;;;3.13;;
13584;SDS011;6863;48.402;9.994;2022-08-01T02:27:41;3.17;;;2.97;;
13584;SDS011;6863;48.402;9.994;2022-08-01T02:30:13;3.60;;;3.30;;
13584;SDS011;6863;48.402;9.994;2022-08-01T02:32:41;3.47;;;3.20;;
13584;SDS011;6863;48.402;9.994;2022-08-01T02:35:11;3.40;;;3.13;;
13584;SDS011;6863;48.402;9.994;2022-08-01T02:37:45;3.83;;;3.53;;
13584;SDS011;6863;48.402;9.994;2022-08-01T02:40:13;3.20;;;3.00;;
13584;SDS011;6863;48.402;9.994;2022-08-01T02:42:42;3.53;;;3.33;;
13584;SDS011;6863;48.402;9.994;2022-08-01T02:45:10;3.83;;;3.50;;
13584;SDS011;6863;48.402;9.994;2022-08-01T02:47:38;3.58;;;3.28;;
13584;SDS011;6863;48.402;9.994;2022-08-01T02:50:08;3.67;;;3.38;;
13584;SDS011;6863;48.402;9.994;2022-08-01T02:52:37;3.40;;;3.20;;
13584;SDS011;6863;48.402;9.994;2022-08-01T02:55:05;3.40;;;3.20;;
13584;SDS011;6863;48.402;9.994;2022-08-01T02:57:31;3.45;;;3.22;;
13584;SDS011;6863;48.402;9.994;2022-08-01T02:59:58;3.90;;;3.53;;
13584;SDS011;6863;48.402;9.994;2022-08-01T03:02:25;3.40;;;3.20;;
13584;SDS011;6863;48.402;9.994;2022-08-01T03:04:52;3.40;;;3.20;;
13584;SDS011;6863;48.402;9.994;2022-08-01T03:07:19;3.63;;;3.33;;
13584;SDS011;6863;48.402;9.994;2022-08-01T03:09:45;5.10;;;3.83;;
13584;SDS011;6863;48.402;9.994;2022-08-01T03:12:17;4.03;;;3.72;;
13584;SDS011;6863;48.402;9.994;2022-08-01T03:14:45;4.07;;;3.78;;
13584;SDS011;6863;48.402;9.994;2022-08-01T03:17:13;3.72;;;3.40;;
13584;SDS011;6863;48.402;9.994;2022-08-01T03:19:41;4.80;;;3.53;;
13584;SDS011;6863;48.402;9.994;2022-08-01T03:22:10;4.03;;;3.63;;
13584;SDS011;6863;48.402;9.994;2022-08-01T03:24:39;3.53;;;3.30;;
13584;SDS011;6863;48.402;9.994;2022-08-01T03:27:06;4.30;;;3.75;;
13584;SDS011;6863;48.402;9.994;2022-08-01T03:29:33;4.57;;;4.20;;
13584;SDS011;6863;48.402;9.994;2022-08-01T03:32:01;5.65;;;4.30;;
13584;SDS011;6863;48.402;9.994;2022-08-01T03:34:28;4.05;;;3.75;;
13584;SDS011;6863;48.402;9.994;2022-08-01T03:36:56;4.10;;;3.80;;
13584;SDS011;6863;48.402;9.994;2022-08-01T03:39:44;4.20;;;3.80;;
13584;SDS011;6863;48.402;9.994;2022-08-01T03:42:14;3.90;;;3.40;;
13584;SDS011;6863;48.402;9.994;2022-08-01T03:44:46;4.40;;;4.00;;
13584;SDS011;6863;48.402;9.994;2022-08-01T03:47:18;3.88;;;3.58;;
13584;SDS011;6863;48.402;9.994;2022-08-01T03:49:47;4.22;;;3.92;;
13584;SDS011;6863;48.402;9.994;2022-08-01T03:52:15;3.72;;;3.42;;
13584;SDS011;6863;48.402;9.994;2022-08-01T03:54:45;4.65;;;4.20;;
13584;SDS011;6863;48.402;9.994;2022-08-01T03:57:12;3.72;;;3.42;;
13584;SDS011;6863;48.402;9.994;2022-08-01T03:59:39;4.35;;;4.03;;
13584;SDS011;6863;48.402;9.994;2022-08-01T04:02:06;4.63;;;4.22;;
13584;SDS011;6863;48.402;9.994;2022-08-01T04:04:32;4.60;;;4.30;;
13584;SDS011;6863;48.402;9.994;2022-08-01T04:06:58;4.63;;;4.15;;
13584;SDS011;6863;48.402;9.994;2022-08-01T04:09:29;5.43;;;4.43;;
13584;SDS011;6863;48.402;9.994;2022-08-01T04:11:58;8.05;;;4.88;;
13584;SDS011;6863;48.402;9.994;2022-08-01T04:14:25;4.50;;;4.20;;
13584;SDS011;6863;48.402;9.994;2022-08-01T04:16:52;4.18;;;3.88;;
13584;SDS011;6863;48.402;9.994;2022-08-01T04:19:18;4.38;;;4.00;;
13584;SDS011;6863;48.402;9.994;2022-08-01T04:21:43;5.05;;;4.65;;
13584;SDS011;6863;48.402;9.994;2022-08-01T04:24:11;5.45;;;4.95;;
13584;SDS011;6863;48.402;9.994;2022-08-01T04:26:41;4.90;;;4.50;;
13584;SDS011;6863;48.402;9.994;2022-08-01T04:29:08;4.60;;;4.20;;
13584;SDS011;6863;48.402;9.994;2022-08-01T04:31:35;4.95;;;4.38;;
13584;SDS011;6863;48.402;9.994;2022-08-01T04:34:04;5.03;;;4.28;;
13584;SDS011;6863;48.402;9.994;2022-08-01T04:36:32;5.10;;;4.70;;
13584;SDS011;6863;48.402;9.994;2022-08-01T04:39:00;5.60;;;5.20;;
13584;SDS011;6863;48.402;9.994;2022-08-01T04:41:26;6.28;;;5.72;;
13584;SDS011;6863;48.402;9.994;2022-08-01T04:43:54;6.32;;;4.30;;
13584;SDS011;6863;48.402;9.994;2022-08-01T04:46:24;9.00;;;6.55;;
13584;SDS011;6863;48.402;9.994;2022-08-01T04:48:50;6.22;;;5.43;;
13584;SDS011;6863;48.402;9.994;2022-08-01T04:51:17;5.35;;;4.43;;
13584;SDS011;6863;48.402;9.994;2022-08-01T04:53:43;4.97;;;4.47;;
13584;SDS011;6863;48.402;9.994;2022-08-01T04:56:13;5.85;;;5.13;;
13584;SDS011;6863;48.402;9.994;2022-08-01T04:58:40;6.15;;;5.22;;
13584;SDS011;6863;48.402;9.994;2022-08-01T05:01:07;4.95;;;4.45;;
13584;SDS011;6863;48.402;9.994;2022-08-01T05:03:33;5.05;;;4.57;;
13584;SDS011;6863;48.402;9.994;2022-08-01T05:05:58;4.90;;;4.43;;
13584;SDS011;6863;48.402;9.994;2022-08-01T05:08:24;5.13;;;4.22;;
13584;SDS011;6863;48.402;9.994;2022-08-01T05:10:50;5.03;;;4.18;;
13584;SDS011;6863;48.402;9.994;2022-08-01T05:13:19;4.88;;;4.53;;
13584;SDS011;6863;48.402;9.994;2022-08-01T05:15:45;4.45;;;4.07;;
13584;SDS011;6863;48.402;9.994;2022-08-01T05:18:13;4.60;;;4.20;;
13584;SDS011;6863;48.402;9.994;2022-08-01T05:20:39;4.65;;;4.20;;
13584;SDS011;6863;48.402;9.994;2022-08-01T05:23:06;4.93;;;4.43;;
13584;SDS011;6863;48.402;9.994;2022-08-01T05:25:31;11.68;;;10.60;;
13584;SDS011;6863;48.402;9.994;2022-08-01T05:27:58;5.30;;;4.90;;
13584;SDS011;6863;48.402;9.994;2022-08-01T05:30:23;4.85;;;4.38;;
13584;SDS011;6863;48.402;9.994;2022-08-01T05:32:49;4.47;;;4.07;;
13584;SDS011;6863;48.402;9.994;2022-08-01T05:35:15;4.35;;;3.95;;
13584;SDS011;6863;48.402;9.994;2022-08-01T05:37:40;5.00;;;4.55;;
13584;SDS011;6863;48.402;9.994;2022-08-01T05:40:06;4.32;;;4.03;;
13584;SDS011;6863;48.402;9.994;2022-08-01T05:42:32;4.28;;;3.63;;
13584;SDS011;6863;48.402;9.994;2022-08-01T05:44:57;4.28;;;3.88;;
13584;SDS011;6863;48.402;9.994;2022-08-01T05:47:23;4.28;;;3.97;;
13584;SDS011;6863;48.402;9.994;2022-08-01T05:49:49;4.57;;;4.18;;
13584;SDS011;6863;48.402;9.994;2022-08-01T05:52:15;7.82;;;4.18;;
13584;SDS011;6863;48.402;9.994;2022-08-01T05:57:11;4.40;;;4.10;;
13584;SDS011;6863;48.402;9.994;2022-08-01T05:59:37;4.05;;;3.75;;
13584;SDS011;6863;48.402;9.994;2022-08-01T06:02:03;4.22;;;3.85;;
13584;SDS011;6863;48.402;9.994;2022-08-01T06:04:28;4.00;;;3.70;;
13584;SDS011;6863;48.402;9.994;2022-08-01T06:06:54;4.05;;;3.65;;
13584;SDS011;6863;48.402;9.994;2022-08-01T06:09:20;3.92;;;3.60;;
13584;SDS011;6863;48.402;9.994;2022-08-01T06:11:45;4.95;;;3.88;;
13584;SDS011;6863;48.402;9.994;2022-08-01T06:14:11;4.70;;;4.30;;
13584;SDS011;6863;48.402;9.994;2022-08-01T06:16:36;4.05;;;3.65;;
13584;SDS011;6863;48.402;9.994;2022-08-01T06:19:02;4.05;;;3.72;;
13584;SDS011;6863;48.402;9.994;2022-08-01T06:21:28;4.30;;;3.80;;
13584;SDS011;6863;48.402;9.994;2022-08-01T06:23:53;4.40;;;4.03;;
13584;SDS011;6863;48.402;9.994;2022-08-01T06:26:19;4.68;;;4.20;;
13584;SDS011;6863;48.402;9.994;2022-08-01T06:28:45;4.60;;;4.20;;
13584;SDS011;6863;48.402;9.994;2022-08-01T06:31:11;4.88;;;4.00;;
13584;SDS011;6863;48.402;9.994;2022-08-01T06:33:38;3.90;;;3.50;;
13584;SDS011;6863;48.402;9.994;2022-08-01T06:36:04;4.18;;;3.70;;
13584;SDS011;6863;48.402;9.994;2022-08-01T06:38:30;5.15;;;4.70;;
13584;SDS011;6863;48.402;9.994;2022-08-01T06:40:55;4.00;;;3.70;;
13584;SDS011;6863;48.402;9.994;2022-08-01T06:43:21;4.13;;;3.80;;
13584;SDS011;6863;48.402;9.994;2022-08-01T06:45:47;4.60;;;4.30;;
13584;SDS011;6863;48.402;9.994;2022-08-01T06:48:13;4.78;;;4.32;;
13584;SDS011;6863;48.402;9.994;2022-08-01T06:50:39;7.25;;;6.55;;
13584;SDS011;6863;48.402;9.994;2022-08-01T06:53:04;4.07;;;3.78;;
13584;SDS011;6863;48.402;9.994;2022-08-01T06:55:30;5.03;;;4.53;;
13584;SDS011;6863;48.402;9.994;2022-08-01T06:57:56;4.45;;;4.05;;
13584;SDS011;6863;48.402;9.994;2022-08-01T07:00:22;4.85;;;4.38;;
13584;SDS011;6863;48.402;9.994;2022-08-01T07:02:52;5.28;;;4.78;;
13584;SDS011;6863;48.402;9.994;2022-08-01T07:05:20;5.15;;;4.63;;
13584;SDS011;6863;48.402;9.994;2022-08-01T07:07:46;5.57;;;4.60;;
13584;SDS011;6863;48.402;9.994;2022-08-01T07:10:12;7.70;;;4.82;;
13584;SDS011;6863;48.402;9.994;2022-08-01T07:12:37;5.30;;;4.85;;
13584;SDS011;6863;48.402;9.994;2022-08-01T07:15:04;4.35;;;4.05;;
13584;SDS011;6863;48.402;9.994;2022-08-01T07:17:30;4.93;;;4.53;;
13584;SDS011;6863;48.402;9.994;2022-08-01T07:19:56;4.03;;;3.72;;
13584;SDS011;6863;48.402;9.994;2022-08-01T07:22:22;4.20;;;3.90;;
13584;SDS011;6863;48.402;9.994;2022-08-01T07:24:47;4.22;;;3.63;;
13584;SDS011;6863;48.402;9.994;2022-08-01T07:27:13;4.20;;;3.80;;
13584;SDS011;6863;48.402;9.994;2022-08-01T07:29:39;4.32;;;4.03;;
13584;SDS011;6863;48.402;9.994;2022-08-01T07:32:05;3.97;;;3.67;;
13584;SDS011;6863;48.402;9.994;2022-08-01T07:34:30;6.20;;;4.47;;
13584;SDS011;6863;48.402;9.994;2022-08-01T07:36:56;4.35;;;4.05;;
13584;SDS011;6863;48.402;9.994;2022-08-01T07:39:22;5.50;;;3.88;;
13584;SDS011;6863;48.402;9.994;2022-08-01T07:41:47;4.40;;;4.00;;
13584;SDS011;6863;48.402;9.994;2022-08-01T07:44:13;4.15;;;3.78;;
13584;SDS011;6863;48.402;9.994;2022-08-01T07:46:39;4.28;;;3.88;;
13584;SDS011;6863;48.402;9.994;2022-08-01T07:49:05;4.13;;;3.72;;
13584;SDS011;6863;48.402;9.994;2022-08-01T07:51:30;4.50;;;3.67;;
13584;SDS011;6863;48.402;9.994;2022-08-01T07:53:56;4.38;;;3.90;;
13584;SDS011;6863;48.402;9.994;2022-08-01T07:56:22;5.18;;;3.33;;
13584;SDS011;6863;48.402;9.994;2022-08-01T07:58:49;4.10;;;3.70;;
13584;SDS011;6863;48.402;9.994;2022-08-01T08:01:15;4.10;;;3.80;;
13584;SDS011;6863;48.402;9.994;2022-08-01T08:03:41;4.18;;;3.50;;
13584;SDS011;6863;48.402;9.994;2022-08-01T08:06:06;4.22;;;3.83;;
13584;SDS011;6863;48.402;9.994;2022-08-01T08:08:32;3.55;;;3.33;;
13584;SDS011;6863;48.402;9.994;2022-08-01T08:10:59;3.88;;;3.47;;
13584;SDS011;6863;48.402;9.994;2022-08-01T08:13:25;3.95;;;3.55;;
13584;SDS011;6863;48.402;9.994;2022-08-01T08:15:51;4.10;;;3.67;;
13584;SDS011;6863;48.402;9.994;2022-08-01T08:18:17;3.75;;;3.45;;
13584;SDS011;6863;48.402;9.994;2022-08-01T08:20:42;3.65;;;3.35;;
13584;SDS011;6863;48.402;9.994;2022-08-01T08:23:08;3.25;;;3.05;;
13584;SDS011;6863;48.402;9.994;2022-08-01T08:25:52;4.32;;;3.35;;
13584;SDS011;6863;48.402;9.994;2022-08-01T08:28:18;2.97;;;2.80;;
13584;SDS011;6863;48.402;9.994;2022-08-01T08:30:44;3.72;;;3.40;;
13584;SDS011;6863;48.402;9.994;2022-08-01T08:33:09;3.70;;;3.50;;
13584;SDS011;6863;48.402;9.994;2022-08-01T08:35:35;3.38;;;3.17;;
13584;SDS011;6863;48.402;9.994;2022-08-01T08:38:00;3.25;;;3.05;;
13584;SDS011;6863;48.402;9.994;2022-08-01T08:40:29;4.20;;;3.72;;
13584;SDS011;6863;48.402;9.994;2022-08-01T08:42:55;3.53;;;3.10;;
13584;SDS011;6863;48.402;9.994;2022-08-01T08:45:22;3.97;;;3.38;;
13584;SDS011;6863;48.402;9.994;2022-08-01T08:47:48;3.60;;;3.30;;
13584;SDS011;6863;48.402;9.994;2022-08-01T08:50:15;4.28;;;3.35;;
13584;SDS011;6863;48.402;9.994;2022-08-01T08:52:41;3.15;;;2.70;;
13584;SDS011;6863;48.402;9.994;2022-08-01T08:55:08;2.95;;;2.75;;
13584;SDS011;6863;48.402;9.994;2022-08-01T08:57:37;3.10;;;2.90;;
13584;SDS011;6863;48.402;9.994;2022-08-01T09:00:05;3.15;;;2.92;;
13584;SDS011;6863;48.402;9.994;2022-08-01T09:02:31;3.40;;;2.95;;
13584;SDS011;6863;48.402;9.994;2022-08-01T09:04:57;2.75;;;2.65;;
13584;SDS011;6863;48.402;9.994;2022-08-01T09:07:23;2.75;;;2.60;;
13584;SDS011;6863;48.402;9.994;2022-08-01T09:09:51;3.40;;;3.20;;
13584;SDS011;6863;48.402;9.994;2022-08-01T09:12:17;3.00;;;2.80;;
13584;SDS011;6863;48.402;9.994;2022-08-01T09:14:44;3.65;;;2.83;;
13584;SDS011;6863;48.402;9.994;2022-08-01T09:17:11;3.72;;;2.85;;
13584;SDS011;6863;48.402;9.994;2022-08-01T09:19:38;2.72;;;2.35;;
13584;SDS011;6863;48.402;9.994;2022-08-01T09:22:10;2.83;;;2.47;;
13584;SDS011;6863;48.402;9.994;2022-08-01T09:24:37;3.35;;;3.05;;
13584;SDS011;6863;48.402;9.994;2022-08-01T09:27:19;4.43;;;4.13;;
13584;SDS011;6863;48.402;9.994;2022-08-01T09:29:46;2.03;;;1.92;;
13584;SDS011;6863;48.402;9.994;2022-08-01T09:32:11;2.45;;;2.25;;
13584;SDS011;6863;48.402;9.994;2022-08-01T09:34:37;2.33;;;2.20;;
13584;SDS011;6863;48.402;9.994;2022-08-01T09:37:03;2.53;;;2.00;;
13584;SDS011;6863;48.402;9.994;2022-08-01T09:39:37;2.15;;;2.05;;
13584;SDS011;6863;48.402;9.994;2022-08-01T09:42:21;4.20;;;3.55;;
13584;SDS011;6863;48.402;9.994;2022-08-01T09:44:47;4.32;;;3.60;;
13584;SDS011;6863;48.402;9.994;2022-08-01T09:47:14;2.47;;;2.30;;
13584;SDS011;6863;48.402;9.994;2022-08-01T09:49:41;2.08;;;1.98;;
13584;SDS011;6863;48.402;9.994;2022-08-01T09:52:19;2.03;;;1.90;;
13584;SDS011;6863;48.402;9.994;2022-08-01T09:54:53;2.08;;;1.98;;
13584;SDS011;6863;48.402;9.994;2022-08-01T09:57:21;2.17;;;2.08;;
13584;SDS011;6863;48.402;9.994;2022-08-01T09:59:48;2.25;;;2.00;;
13584;SDS011;6863;48.402;9.994;2022-08-01T10:05:04;2.13;;;2.00;;
13584;SDS011;6863;48.402;9.994;2022-08-01T10:07:32;2.20;;;2.10;;
13584;SDS011;6863;48.402;9.994;2022-08-01T10:10:11;2.33;;;1.90;;
13584;SDS011;6863;48.402;9.994;2022-08-01T10:12:38;2.75;;;2.10;;
13584;SDS011;6863;48.402;9.994;2022-08-01T10:15:06;2.28;;;2.15;;
13584;SDS011;6863;48.402;9.994;2022-08-01T10:17:33;2.35;;;2.20;;
13584;SDS011;6863;48.402;9.994;2022-08-01T10:20:03;4.15;;;2.22;;
13584;SDS011;6863;48.402;9.994;2022-08-01T10:22:30;2.63;;;2.42;;
13584;SDS011;6863;48.402;9.994;2022-08-01T10:24:56;2.28;;;2.17;;
13584;SDS011;6863;48.402;9.994;2022-08-01T10:27:26;2.25;;;2.15;;
13584;SDS011;6863;48.402;9.994;2022-08-01T10:29:55;2.33;;;2.15;;
13584;SDS011;6863;48.402;9.994;2022-08-01T10:32:22;3.92;;;2.20;;
13584;SDS011;6863;48.402;9.994;2022-08-01T10:34:49;2.78;;;2.35;;
13584;SDS011;6863;48.402;9.994;2022-08-01T10:37:15;2.47;;;2.38;;
13584;SDS011;6863;48.402;9.994;2022-08-01T10:39:42;2.60;;;2.20;;
13584;SDS011;6863;48.402;9.994;2022-08-01T10:42:09;2.42;;;2.28;;
13584;SDS011;6863;48.402;9.994;2022-08-01T10:44:35;2.70;;;2.50;;
13584;SDS011;6863;48.402;9.994;2022-08-01T10:47:12;2.30;;;2.20;;
13584;SDS011;6863;48.402;9.994;2022-08-01T10:52:29;2.33;;;2.20;;
13584;SDS011;6863;48.402;9.994;2022-08-01T10:55:07;2.30;;;2.10;;
13584;SDS011;6863;48.402;9.994;2022-08-01T10:57:43;2.60;;;2.40;;
13584;SDS011;6863;48.402;9.994;2022-08-01T11:00:11;3.95;;;3.65;;
13584;SDS011;6863;48.402;9.994;2022-08-01T11:02:58;2.75;;;2.55;;
13584;SDS011;6863;48.402;9.994;2022-08-01T11:05:30;2.50;;;2.40;;
13584;SDS011;6863;48.402;9.994;2022-08-01T11:07:58;2.30;;;2.20;;
13584;SDS011;6863;48.402;9.994;2022-08-01T11:13:03;3.10;;;2.90;;
13584;SDS011;6863;48.402;9.994;2022-08-01T11:15:32;2.55;;;2.35;;
13584;SDS011;6863;48.402;9.994;2022-08-01T11:18:00;2.70;;;2.50;;
13584;SDS011;6863;48.402;9.994;2022-08-01T11:20:30;2.60;;;2.40;;
13584;SDS011;6863;48.402;9.994;2022-08-01T11:25:26;2.40;;;2.30;;
13584;SDS011;6863;48.402;9.994;2022-08-01T11:41:24;2.60;;;2.50;;
13584;SDS011;6863;48.402;9.994;2022-08-01T11:43:59;2.72;;;2.50;;
13584;SDS011;6863;48.402;9.994;2022-08-01T11:46:46;2.78;;;2.58;;
13584;SDS011;6863;48.402;9.994;2022-08-01T11:49:22;3.97;;;2.60;;
13584;SDS011;6863;48.402;9.994;2022-08-01T11:51:57;2.60;;;2.40;;
13584;SDS011;6863;48.402;9.994;2022-08-01T11:57:08;2.92;;;2.72;;
13584;SDS011;6863;48.402;9.994;2022-08-01T11:59:36;2.70;;;2.50;;
13584;SDS011;6863;48.402;9.994;2022-08-01T12:05:06;3.13;;;2.92;;
13584;SDS011;6863;48.402;9.994;2022-08-01T12:07:36;3.00;;;2.80;;
13584;SDS011;6863;48.402;9.994;2022-08-01T12:12:32;3.45;;;3.00;;
13584;SDS011;6863;48.402;9.994;2022-08-01T12:15:00;3.30;;;2.95;;
13584;SDS011;6863;48.402;9.994;2022-08-01T12:17:34;4.15;;;3.70;;
13584;SDS011;6863;48.402;9.994;2022-08-01T12:20:00;4.45;;;3.58;;
13584;SDS011;6863;48.402;9.994;2022-08-01T12:22:28;6.07;;;3.30;;
13584;SDS011;6863;48.402;9.994;2022-08-01T12:24:54;5.72;;;3.20;;
13584;SDS011;6863;48.402;9.994;2022-08-01T12:27:24;4.30;;;3.17;;
13584;SDS011;6863;48.402;9.994;2022-08-01T12:29:55;3.78;;;3.40;;
13584;SDS011;6863;48.402;9.994;2022-08-01T12:32:26;4.10;;;3.45;;
13584;SDS011;6863;48.402;9.994;2022-08-01T12:34:55;4.10;;;3.40;;
13584;SDS011;6863;48.402;9.994;2022-08-01T12:37:25;5.70;;;3.28;;
13584;SDS011;6863;48.402;9.994;2022-08-01T12:39:51;3.03;;;2.83;;
13584;SDS011;6863;48.402;9.994;2022-08-01T12:42:16;3.45;;;3.15;;
13584;SDS011;6863;48.402;9.994;2022-08-01T12:44:43;3.47;;;3.17;;
13584;SDS011;6863;48.402;9.994;2022-08-01T12:47:10;4.05;;;3.70;;
13584;SDS011;6863;48.402;9.994;2022-08-01T12:49:37;4.13;;;3.75;;
13584;SDS011;6863;48.402;9.994;2022-08-01T12:52:05;4.22;;;3.10;;
13584;SDS011;6863;48.402;9.994;2022-08-01T12:57:04;3.72;;;3.38;;
13584;SDS011;6863;48.402;9.994;2022-08-01T12:59:30;3.85;;;3.20;;
13584;SDS011;6863;48.402;9.994;2022-08-01T13:02:07;3.58;;;3.13;;
13584;SDS011;6863;48.402;9.994;2022-08-01T13:04:33;3.33;;;2.97;;
13584;SDS011;6863;48.402;9.994;2022-08-01T13:07:17;3.70;;;3.40;;
13584;SDS011;6863;48.402;9.994;2022-08-01T13:09:49;3.70;;;3.50;;
13584;SDS011;6863;48.402;9.994;2022-08-01T13:12:15;3.50;;;3.17;;
13584;SDS011;6863;48.402;9.994;2022-08-01T13:14:41;3.58;;;3.30;;
13584;SDS011;6863;48.402;9.994;2022-08-01T13:17:07;5.05;;;2.72;;
13584;SDS011;6863;48.402;9.994;2022-08-01T13:19:42;3.40;;;3.10;;
13584;SDS011;6863;48.402;9.994;2022-08-01T13:22:12;3.85;;;3.55;;
13584;SDS011;6863;48.402;9.994;2022-08-01T13:24:37;3.38;;;3.17;;
13584;SDS011;6863;48.402;9.994;2022-08-01T13:27:03;4.30;;;3.90;;
13584;SDS011;6863;48.402;9.994;2022-08-01T13:31:57;3.20;;;3.00;;
13584;SDS011;6863;48.402;9.994;2022-08-01T13:34:32;6.03;;;3.03;;
13584;SDS011;6863;48.402;9.994;2022-08-01T13:36:59;3.53;;;2.95;;
13584;SDS011;6863;48.402;9.994;2022-08-01T13:39:29;4.10;;;3.50;;
13584;SDS011;6863;48.402;9.994;2022-08-01T13:42:10;3.22;;;2.63;;
13584;SDS011;6863;48.402;9.994;2022-08-01T13:44:38;4.78;;;3.17;;
13584;SDS011;6863;48.402;9.994;2022-08-01T13:47:04;5.72;;;3.03;;
13584;SDS011;6863;48.402;9.994;2022-08-01T13:49:30;3.40;;;3.20;;
13584;SDS011;6863;48.402;9.994;2022-08-01T13:51:56;10.63;;;3.38;;
13584;SDS011;6863;48.402;9.994;2022-08-01T13:54:22;3.15;;;2.85;;
13584;SDS011;6863;48.402;9.994;2022-08-01T13:56:48;4.32;;;3.33;;
13584;SDS011;6863;48.402;9.994;2022-08-01T13:59:15;3.80;;;3.40;;
13584;SDS011;6863;48.402;9.994;2022-08-01T14:01:40;3.88;;;3.28;;
13584;SDS011;6863;48.402;9.994;2022-08-01T14:04:06;3.28;;;2.90;;
13584;SDS011;6863;48.402;9.994;2022-08-01T14:06:32;4.25;;;3.85;;
13584;SDS011;6863;48.402;9.994;2022-08-01T14:08:59;4.60;;;3.22;;
13584;SDS011;6863;48.402;9.994;2022-08-01T14:11:26;3.22;;;2.90;;
13584;SDS011;6863;48.402;9.994;2022-08-01T14:13:52;3.42;;;2.95;;
13584;SDS011;6863;48.402;9.994;2022-08-01T14:16:18;2.80;;;2.42;;
13584;SDS011;6863;48.402;9.994;2022-08-01T14:18:44;2.70;;;2.50;;
13584;SDS011;6863;48.402;9.994;2022-08-01T14:21:09;4.35;;;3.38;;
13584;SDS011;6863;48.402;9.994;2022-08-01T14:23:35;2.78;;;2.58;;
13584;SDS011;6863;48.402;9.994;2022-08-01T14:26:01;3.03;;;2.65;;
13584;SDS011;6863;48.402;9.994;2022-08-01T14:28:27;2.78;;;2.58;;
13584;SDS011;6863;48.402;9.994;2022-08-01T14:30:55;3.00;;;2.80;;
13584;SDS011;6863;48.402;9.994;2022-08-01T14:33:21;2.53;;;2.33;;
13584;SDS011;6863;48.402;9.994;2022-08-01T14:35:47;3.20;;;2.90;;
13584;SDS011;6863;48.402;9.994;2022-08-01T14:38:13;2.75;;;2.60;;
13584;SDS011;6863;48.402;9.994;2022-08-01T14:40:38;3.58;;;2.70;;
13584;SDS011;6863;48.402;9.994;2022-08-01T14:43:05;3.40;;;3.10;;
13584;SDS011;6863;48.402;9.994;2022-08-01T14:45:31;6.22;;;2.80;;
13584;SDS011;6863;48.402;9.994;2022-08-01T14:47:58;3.55;;;3.25;;
13584;SDS011;6863;48.402;9.994;2022-08-01T14:50:24;3.85;;;3.55;;
13584;SDS011;6863;48.402;9.994;2022-08-01T14:52:51;2.90;;;2.70;;
13584;SDS011;6863;48.402;9.994;2022-08-01T14:55:17;3.67;;;3.30;;
13584;SDS011;6863;48.402;9.994;2022-08-01T14:57:46;3.90;;;2.58;;
13584;SDS011;6863;48.402;9.994;2022-08-01T15:00:12;3.15;;;2.92;;
13584;SDS011;6863;48.402;9.994;2022-08-01T15:02:38;3.40;;;2.90;;
13584;SDS011;6863;48.402;9.994;2022-08-01T15:05:04;5.00;;;2.88;;
13584;SDS011;6863;48.402;9.994;2022-08-01T15:07:30;4.05;;;3.20;;
13584;SDS011;6863;48.402;9.994;2022-08-01T15:09:56;3.95;;;3.00;;
13584;SDS011;6863;48.402;9.994;2022-08-01T15:12:21;3.38;;;3.00;;
13584;SDS011;6863;48.402;9.994;2022-08-01T15:14:47;4.95;;;3.40;;
13584;SDS011;6863;48.402;9.994;2022-08-01T15:17:13;3.47;;;3.17;;
13584;SDS011;6863;48.402;9.994;2022-08-01T15:19:41;3.28;;;3.05;;
13584;SDS011;6863;48.402;9.994;2022-08-01T15:22:07;3.60;;;3.30;;
13584;SDS011;6863;48.402;9.994;2022-08-01T15:24:33;4.28;;;3.47;;
13584;SDS011;6863;48.402;9.994;2022-08-01T15:27:09;3.35;;;3.15;;
13584;SDS011;6863;48.402;9.994;2022-08-01T15:29:35;3.88;;;3.22;;
13584;SDS011;6863;48.402;9.994;2022-08-01T15:32:02;3.20;;;2.90;;
13584;SDS011;6863;48.402;9.994;2022-08-01T15:34:29;3.90;;;3.10;;
13584;SDS011;6863;48.402;9.994;2022-08-01T15:36:55;3.33;;;3.08;;
13584;SDS011;6863;48.402;9.994;2022-08-01T15:39:22;4.10;;;3.70;;
13584;SDS011;6863;48.402;9.994;2022-08-01T15:41:47;4.78;;;3.47;;
13584;SDS011;6863;48.402;9.994;2022-08-01T15:44:13;3.90;;;3.50;;
13584;SDS011;6863;48.402;9.994;2022-08-01T15:46:39;3.80;;;3.50;;
13584;SDS011;6863;48.402;9.994;2022-08-01T15:49:05;3.38;;;3.10;;
13584;SDS011;6863;48.402;9.994;2022-08-01T15:51:31;3.97;;;3.58;;
13584;SDS011;6863;48.402;9.994;2022-08-01T15:53:58;3.78;;;3.53;;